Skip Navigation Links
NOAA logo - Click to go to the NOAA homepage
NOAA's National Weather Service
Alaska Aviation Weather Unit
  NWS logo - Click to go to the NWS homepage
Left Navbar Graphic     09 AKDT = 17 GMT

   
NOAA is celebrating 200 years of science, service, and stewardship. Visit the NOAA 200th celebration Web site to learn more.
USA.gov is the U.S. Government's official Web portal to all Federal, state and local government Web resources and services.
Facebook
NWS on Facebook

Important Change Regarding the AAWU Web Presence

 

Over the last several months, the AAWU has been working to navigate its webpages to a nationally supported server. Security, as well as other needs, have necessitated the change.  In the process, we have made an effort to enhance the functionality of our website, as well as some of our products. As of June 20, 2017, aawu.arh.noaa.gov will be discontinued. The new AAWU web address is weather.gov/aawu. It is now live and will run in-parallel with the old site until it is discontinued. Please send any feedback or questions regarding the new webpages to nws.ar.aawu.webauthors@noaa.gov.  Thank you for your patience during this time of transition.
AAWU Home :: Display TAF Add Bookmark
TAF PATA 291124Z 2912/3012 VRB06KT P6SM FEW035 SCT050 OVC100
     FM291800 VRB06KT P6SM VCSH SCT035 BKN050 OVC100
     FM292100 VRB06KT 6SM -SHRA BR SCT025 BKN035 OVC050=

METAR PATA 291152Z AUTO 06004KT 10SM OVC070 10/04 A2971 RMK AO2 SLP062 60000 T01000044 10156 20100 58004 TSNO $= METAR PATA 291252Z AUTO 00000KT 8SM OVC070 10/06 A2971 RMK AO2 SLP062 T01000056 TSNO $= PATA 291352Z COR 14003KT 7SM BKN070 OVC080 11/06 A2971 RMK AO2 SLP063 T01060056= METAR PATA 291452Z 11004KT 7SM BKN075 10/04 A2971 RMK AO2 SLP062 T01000044 50000 $= METAR PATA 291552Z 09004KT 10SM BKN080 11/04 A2971 RMK AO2 SLP064 T01060039 $= METAR PATA 291652Z 11006KT 8SM OVC060 11/04 A2971 RMK AO2 SLP063 T01110039 $=
 Alaska TAF Map

NOAA's National Weather Service
Alaska Aviation Weather Unit
6930 Sand Lake Road
Anchorage, AK 99502-1845
Disclaimer
Credits
Glossary
Privacy Policy
About Us
Career Opportunities
Contact AAWU Internet Services Site last modified: April, 17th 2012